METAR AND TAF INFORMATION
METAR FOR EHGR
ADDS - METARS form results

(1053 UTC 25 May 2019)
Data provider http://aviationweather.gov/metar/data/
 
METAR text: EHGR 251025Z AUTO VRB03KT 9999 -RA FEW051 BKN064 OVC069 15/08 Q1018 RERA REDZ BLU
Conditions at: EHGR (GILZE-RIJEN RNLA, NL) observed 1025 UTC 25 May 2019
Temperature: 15.0°C (59°F)
Dewpoint: 8.0°C (46°F) [RH = 63%]
Pressure (altimeter): 30.06 inches Hg (1018.0 mb)
Winds: variable direction winds at 3 MPH (3 knots; 1.5 m/s)
Visibility: 6 or more miles (10+ km)
Ceiling: 6400 feet AGL
Clouds: few clouds at 5100 feet AGL
broken clouds at 6400 feet AGL
overcast cloud deck at 6900 feet AGL
Weather: -RA  (light rain)

METAR text: EHGR 250955Z AUTO VRB02KT 9999 -RA BKN064 OVC070 15/09 Q1018 BLU
Conditions at: EHGR (GILZE-RIJEN RNLA, NL) observed 0955 UTC 25 May 2019
Temperature: 15.0°C (59°F)
Dewpoint: 9.0°C (48°F) [RH = 67%]
Pressure (altimeter): 30.06 inches Hg (1018.0 mb)
Winds: variable direction winds at 2 MPH (2 knots; 1.0 m/s)
Visibility: 6 or more miles (10+ km)
Ceiling: 6400 feet AGL
Clouds: broken clouds at 6400 feet AGL
overcast cloud deck at 7000 feet AGL
Weather: -RA  (light rain)

 AIRPORT MAP

 RUNWAY INFORMATION
Runway 02 Runway length 6549 ft Runway width 98 ft
Runway elevation 49 ft Runway displaced threshold 191 ft Runway heading 18
Runway 20 Runway length 6549 ft Runway width 98 ft
Runway elevation 40 ft Runway displaced threshold 192 ft Runway heading 198
Runway 10 Runway length 9118 ft Runway width 148 ft
Runway elevation 42 ft Runway displaced threshold 427 ft Runway heading 100
Runway 28 Runway length 9118 ft Runway width 148 ft
Runway elevation 38 ft Runway displaced threshold 331 ft Runway heading 280

 AIRPORT FREQUENCIES
Type ARR Name RAPCON WES Frequency 123.575 MHZ
Type GND Name GND Frequency 23.492 MHZ
Type TWR Name TWR Frequency 125.325 MHZ

 AIRPORT NEAR NAVIGATION AIDS
Type TACAN Name Gilze Rijen Frequency 116400 KHZ